sensor_id;sensor_type;location;lat;lon;timestamp;temperature;humidity
56240;DHT22;42154;51.992;5.896;2023-06-14T00:00:40;20.20;60.60
56240;DHT22;42154;51.992;5.896;2023-06-14T00:03:10;20.20;60.60
56240;DHT22;42154;51.992;5.896;2023-06-14T00:05:38;20.10;60.90
56240;DHT22;42154;51.992;5.896;2023-06-14T00:08:09;20.10;61.00
56240;DHT22;42154;51.992;5.896;2023-06-14T00:10:36;20.00;61.00
56240;DHT22;42154;51.992;5.896;2023-06-14T00:13:03;20.10;61.20
56240;DHT22;42154;51.992;5.896;2023-06-14T00:15:31;20.00;61.20
56240;DHT22;42154;51.992;5.896;2023-06-14T00:18:00;20.00;61.30
56240;DHT22;42154;51.992;5.896;2023-06-14T00:20:27;19.90;61.50
56240;DHT22;42154;51.992;5.896;2023-06-14T00:22:53;19.90;61.70
56240;DHT22;42154;51.992;5.896;2023-06-14T00:25:23;19.90;62.00
56240;DHT22;42154;51.992;5.896;2023-06-14T00:27:51;19.80;62.00
56240;DHT22;42154;51.992;5.896;2023-06-14T00:30:17;19.70;62.30
56240;DHT22;42154;51.992;5.896;2023-06-14T00:32:43;19.70;62.60
56240;DHT22;42154;51.992;5.896;2023-06-14T00:35:10;19.60;62.50
56240;DHT22;42154;51.992;5.896;2023-06-14T00:37:36;19.60;62.50
56240;DHT22;42154;51.992;5.896;2023-06-14T00:40:03;19.60;62.90
56240;DHT22;42154;51.992;5.896;2023-06-14T00:42:30;19.50;62.90
56240;DHT22;42154;51.992;5.896;2023-06-14T00:44:56;19.50;63.00
56240;DHT22;42154;51.992;5.896;2023-06-14T00:47:22;19.50;63.30
56240;DHT22;42154;51.992;5.896;2023-06-14T00:49:50;19.40;63.30
56240;DHT22;42154;51.992;5.896;2023-06-14T00:52:19;19.40;63.40
56240;DHT22;42154;51.992;5.896;2023-06-14T00:54:46;19.40;63.60
56240;DHT22;42154;51.992;5.896;2023-06-14T00:57:12;19.40;63.70
56240;DHT22;42154;51.992;5.896;2023-06-14T00:59:46;19.40;63.80
56240;DHT22;42154;51.992;5.896;2023-06-14T01:02:13;19.30;63.80
56240;DHT22;42154;51.992;5.896;2023-06-14T01:04:41;19.30;64.10
56240;DHT22;42154;51.992;5.896;2023-06-14T01:07:12;19.20;64.10
56240;DHT22;42154;51.992;5.896;2023-06-14T01:12:15;19.20;64.50
56240;DHT22;42154;51.992;5.896;2023-06-14T01:14:44;19.10;64.50
56240;DHT22;42154;51.992;5.896;2023-06-14T01:17:11;19.10;64.90
56240;DHT22;42154;51.992;5.896;2023-06-14T01:19:45;19.10;64.90
56240;DHT22;42154;51.992;5.896;2023-06-14T01:22:13;19.00;64.80
56240;DHT22;42154;51.992;5.896;2023-06-14T01:24:40;19.00;65.00
56240;DHT22;42154;51.992;5.896;2023-06-14T01:27:11;19.00;65.30
56240;DHT22;42154;51.992;5.896;2023-06-14T01:29:38;18.90;65.40
56240;DHT22;42154;51.992;5.896;2023-06-14T01:32:05;18.90;65.50
56240;DHT22;42154;51.992;5.896;2023-06-14T01:34:31;18.90;65.50
56240;DHT22;42154;51.992;5.896;2023-06-14T01:36:58;18.80;65.60
56240;DHT22;42154;51.992;5.896;2023-06-14T01:39:25;18.80;65.70
56240;DHT22;42154;51.992;5.896;2023-06-14T01:41:52;18.80;65.70
56240;DHT22;42154;51.992;5.896;2023-06-14T01:44:19;18.80;66.00
56240;DHT22;42154;51.992;5.896;2023-06-14T01:46:45;18.70;66.10
56240;DHT22;42154;51.992;5.896;2023-06-14T01:49:11;18.70;66.30
56240;DHT22;42154;51.992;5.896;2023-06-14T01:51:37;18.60;66.50
56240;DHT22;42154;51.992;5.896;2023-06-14T01:54:03;18.60;66.60
56240;DHT22;42154;51.992;5.896;2023-06-14T01:56:30;18.50;66.70
56240;DHT22;42154;51.992;5.896;2023-06-14T01:58:56;18.50;66.70
56240;DHT22;42154;51.992;5.896;2023-06-14T02:01:22;18.50;67.40
56240;DHT22;42154;51.992;5.896;2023-06-14T02:03:48;18.40;66.80
56240;DHT22;42154;51.992;5.896;2023-06-14T02:06:15;18.40;67.00
56240;DHT22;42154;51.992;5.896;2023-06-14T02:08:43;18.40;67.20
56240;DHT22;42154;51.992;5.896;2023-06-14T02:11:10;18.30;67.40
56240;DHT22;42154;51.992;5.896;2023-06-14T02:13:36;18.30;67.40
56240;DHT22;42154;51.992;5.896;2023-06-14T02:16:01;18.30;67.60
56240;DHT22;42154;51.992;5.896;2023-06-14T02:18:28;18.30;67.60
56240;DHT22;42154;51.992;5.896;2023-06-14T02:20:55;18.30;67.70
56240;DHT22;42154;51.992;5.896;2023-06-14T02:23:21;18.20;67.70
56240;DHT22;42154;51.992;5.896;2023-06-14T02:25:47;18.20;68.00
56240;DHT22;42154;51.992;5.896;2023-06-14T02:28:13;18.10;67.90
56240;DHT22;42154;51.992;5.896;2023-06-14T02:30:39;18.10;68.20
56240;DHT22;42154;51.992;5.896;2023-06-14T02:33:05;18.10;68.10
56240;DHT22;42154;51.992;5.896;2023-06-14T02:35:31;18.00;68.20
56240;DHT22;42154;51.992;5.896;2023-06-14T02:37:57;18.00;68.40
56240;DHT22;42154;51.992;5.896;2023-06-14T02:40:24;18.00;68.40
56240;DHT22;42154;51.992;5.896;2023-06-14T02:42:50;18.00;68.70
56240;DHT22;42154;51.992;5.896;2023-06-14T02:45:16;17.90;68.70
56240;DHT22;42154;51.992;5.896;2023-06-14T02:47:42;17.90;68.70
56240;DHT22;42154;51.992;5.896;2023-06-14T02:50:08;17.90;68.80
56240;DHT22;42154;51.992;5.896;2023-06-14T02:52:34;17.90;69.00
56240;DHT22;42154;51.992;5.896;2023-06-14T02:55:00;17.80;68.90
56240;DHT22;42154;51.992;5.896;2023-06-14T02:57:26;17.80;69.00
56240;DHT22;42154;51.992;5.896;2023-06-14T02:59:52;17.80;69.10
56240;DHT22;42154;51.992;5.896;2023-06-14T03:02:18;17.80;69.30
56240;DHT22;42154;51.992;5.896;2023-06-14T03:04:44;17.70;69.30
56240;DHT22;42154;51.992;5.896;2023-06-14T03:07:15;17.70;69.30
56240;DHT22;42154;51.992;5.896;2023-06-14T03:09:45;17.60;69.70
56240;DHT22;42154;51.992;5.896;2023-06-14T03:12:12;17.60;70.00
56240;DHT22;42154;51.992;5.896;2023-06-14T03:14:38;17.60;70.10
56240;DHT22;42154;51.992;5.896;2023-06-14T03:17:06;17.60;70.10
56240;DHT22;42154;51.992;5.896;2023-06-14T03:19:35;17.60;70.20
56240;DHT22;42154;51.992;5.896;2023-06-14T03:22:02;17.60;70.30
56240;DHT22;42154;51.992;5.896;2023-06-14T03:24:30;17.50;70.40
56240;DHT22;42154;51.992;5.896;2023-06-14T03:27:05;17.50;70.50
56240;DHT22;42154;51.992;5.896;2023-06-14T03:29:31;17.50;70.80
56240;DHT22;42154;51.992;5.896;2023-06-14T03:31:59;17.50;71.00
56240;DHT22;42154;51.992;5.896;2023-06-14T03:34:27;17.40;71.00
56240;DHT22;42154;51.992;5.896;2023-06-14T03:36:54;17.40;71.30
56240;DHT22;42154;51.992;5.896;2023-06-14T03:39:20;17.40;71.30
56240;DHT22;42154;51.992;5.896;2023-06-14T03:41:46;17.40;71.50
56240;DHT22;42154;51.992;5.896;2023-06-14T03:44:15;17.40;71.30
56240;DHT22;42154;51.992;5.896;2023-06-14T03:46:41;17.40;71.40
56240;DHT22;42154;51.992;5.896;2023-06-14T03:49:07;17.40;71.60
56240;DHT22;42154;51.992;5.896;2023-06-14T03:51:33;17.30;71.70
56240;DHT22;42154;51.992;5.896;2023-06-14T03:54:01;17.40;71.80
56240;DHT22;42154;51.992;5.896;2023-06-14T03:56:27;17.80;71.20
56240;DHT22;42154;51.992;5.896;2023-06-14T03:58:53;18.40;69.70
56240;DHT22;42154;51.992;5.896;2023-06-14T04:01:22;19.10;68.10
56240;DHT22;42154;51.992;5.896;2023-06-14T04:03:53;19.80;66.30
56240;DHT22;42154;51.992;5.896;2023-06-14T04:06:18;20.30;65.10
56240;DHT22;42154;51.992;5.896;2023-06-14T04:08:45;20.90;63.60
56240;DHT22;42154;51.992;5.896;2023-06-14T04:11:11;21.50;63.00
56240;DHT22;42154;51.992;5.896;2023-06-14T04:13:37;22.00;61.30
56240;DHT22;42154;51.992;5.896;2023-06-14T04:16:05;22.40;60.40
56240;DHT22;42154;51.992;5.896;2023-06-14T04:18:34;22.90;59.40
56240;DHT22;42154;51.992;5.896;2023-06-14T04:21:00;23.40;59.00
56240;DHT22;42154;51.992;5.896;2023-06-14T04:23:26;23.80;58.50
56240;DHT22;42154;51.992;5.896;2023-06-14T04:25:53;24.20;57.50
56240;DHT22;42154;51.992;5.896;2023-06-14T04:28:19;24.40;57.30
56240;DHT22;42154;51.992;5.896;2023-06-14T04:30:46;24.40;56.60
56240;DHT22;42154;51.992;5.896;2023-06-14T04:33:14;24.20;57.10
56240;DHT22;42154;51.992;5.896;2023-06-14T04:35:40;24.50;57.30
56240;DHT22;42154;51.992;5.896;2023-06-14T04:38:06;24.70;57.00
56240;DHT22;42154;51.992;5.896;2023-06-14T04:40:35;25.10;56.40
56240;DHT22;42154;51.992;5.896;2023-06-14T04:43:09;25.50;56.00
56240;DHT22;42154;51.992;5.896;2023-06-14T04:45:38;25.70;55.20
56240;DHT22;42154;51.992;5.896;2023-06-14T04:48:06;26.00;54.90
56240;DHT22;42154;51.992;5.896;2023-06-14T04:50:32;26.10;54.40
56240;DHT22;42154;51.992;5.896;2023-06-14T04:52:59;25.90;54.00
56240;DHT22;42154;51.992;5.896;2023-06-14T04:55:26;25.80;54.30
56240;DHT22;42154;51.992;5.896;2023-06-14T04:57:52;25.80;54.20
56240;DHT22;42154;51.992;5.896;2023-06-14T05:00:21;25.60;54.90
56240;DHT22;42154;51.992;5.896;2023-06-14T05:02:47;24.70;56.00
56240;DHT22;42154;51.992;5.896;2023-06-14T05:05:15;23.80;58.10
56240;DHT22;42154;51.992;5.896;2023-06-14T05:07:42;22.90;59.30
56240;DHT22;42154;51.992;5.896;2023-06-14T05:10:09;22.30;60.30
56240;DHT22;42154;51.992;5.896;2023-06-14T05:12:35;21.70;61.50
56240;DHT22;42154;51.992;5.896;2023-06-14T05:15:02;21.40;62.50
56240;DHT22;42154;51.992;5.896;2023-06-14T05:17:28;21.20;63.00
56240;DHT22;42154;51.992;5.896;2023-06-14T05:19:54;21.00;63.20
56240;DHT22;42154;51.992;5.896;2023-06-14T05:22:21;20.80;63.90
56240;DHT22;42154;51.992;5.896;2023-06-14T05:24:47;20.70;64.50
56240;DHT22;42154;51.992;5.896;2023-06-14T05:27:14;20.60;64.50
56240;DHT22;42154;51.992;5.896;2023-06-14T05:29:39;20.60;64.70
56240;DHT22;42154;51.992;5.896;2023-06-14T05:32:06;20.60;65.00
56240;DHT22;42154;51.992;5.896;2023-06-14T05:34:31;20.60;64.70
56240;DHT22;42154;51.992;5.896;2023-06-14T05:36:57;20.60;65.00
56240;DHT22;42154;51.992;5.896;2023-06-14T05:39:23;20.60;64.90
56240;DHT22;42154;51.992;5.896;2023-06-14T05:41:49;20.60;64.90
56240;DHT22;42154;51.992;5.896;2023-06-14T05:44:15;20.70;65.20
56240;DHT22;42154;51.992;5.896;2023-06-14T05:46:41;20.70;65.30
56240;DHT22;42154;51.992;5.896;2023-06-14T05:49:07;20.60;65.40
56240;DHT22;42154;51.992;5.896;2023-06-14T05:51:33;20.60;65.00
56240;DHT22;42154;51.992;5.896;2023-06-14T05:53:59;20.60;65.30
56240;DHT22;42154;51.992;5.896;2023-06-14T05:56:25;20.70;65.40
56240;DHT22;42154;51.992;5.896;2023-06-14T05:58:51;20.70;65.40
56240;DHT22;42154;51.992;5.896;2023-06-14T06:01:17;20.70;65.70
56240;DHT22;42154;51.992;5.896;2023-06-14T06:03:42;20.70;65.70
56240;DHT22;42154;51.992;5.896;2023-06-14T06:06:12;20.60;65.60
56240;DHT22;42154;51.992;5.896;2023-06-14T06:08:38;20.50;65.70
56240;DHT22;42154;51.992;5.896;2023-06-14T06:11:03;20.50;66.10
56240;DHT22;42154;51.992;5.896;2023-06-14T06:13:29;20.60;66.10
56240;DHT22;42154;51.992;5.896;2023-06-14T06:15:55;20.70;65.90
56240;DHT22;42154;51.992;5.896;2023-06-14T06:18:21;20.90;65.90
56240;DHT22;42154;51.992;5.896;2023-06-14T06:20:47;20.90;66.00
56240;DHT22;42154;51.992;5.896;2023-06-14T06:23:13;20.90;65.90
56240;DHT22;42154;51.992;5.896;2023-06-14T06:25:39;20.90;65.60
56240;DHT22;42154;51.992;5.896;2023-06-14T06:28:05;20.90;65.40
56240;DHT22;42154;51.992;5.896;2023-06-14T06:30:31;20.90;65.80
56240;DHT22;42154;51.992;5.896;2023-06-14T06:32:57;20.90;65.70
56240;DHT22;42154;51.992;5.896;2023-06-14T06:35:23;20.80;66.20
56240;DHT22;42154;51.992;5.896;2023-06-14T06:37:49;20.90;66.10
56240;DHT22;42154;51.992;5.896;2023-06-14T06:40:15;21.00;66.00
56240;DHT22;42154;51.992;5.896;2023-06-14T06:42:41;21.10;66.00
56240;DHT22;42154;51.992;5.896;2023-06-14T06:45:11;21.30;65.60
56240;DHT22;42154;51.992;5.896;2023-06-14T06:47:36;21.30;65.50
56240;DHT22;42154;51.992;5.896;2023-06-14T06:50:02;21.40;65.40
56240;DHT22;42154;51.992;5.896;2023-06-14T06:52:28;21.40;65.00
56240;DHT22;42154;51.992;5.896;2023-06-14T06:54:54;21.40;65.70
56240;DHT22;42154;51.992;5.896;2023-06-14T06:57:21;21.50;65.00
56240;DHT22;42154;51.992;5.896;2023-06-14T06:59:50;21.50;65.10
56240;DHT22;42154;51.992;5.896;2023-06-14T07:02:16;21.60;65.20
56240;DHT22;42154;51.992;5.896;2023-06-14T07:04:42;21.80;65.30
56240;DHT22;42154;51.992;5.896;2023-06-14T07:07:08;21.90;64.80
56240;DHT22;42154;51.992;5.896;2023-06-14T07:09:35;22.00;63.50
56240;DHT22;42154;51.992;5.896;2023-06-14T07:12:01;22.00;63.80
56240;DHT22;42154;51.992;5.896;2023-06-14T07:14:27;21.90;63.40
56240;DHT22;42154;51.992;5.896;2023-06-14T07:16:53;21.90;64.10
56240;DHT22;42154;51.992;5.896;2023-06-14T07:19:19;21.90;63.80
56240;DHT22;42154;51.992;5.896;2023-06-14T07:21:45;21.90;63.50
56240;DHT22;42154;51.992;5.896;2023-06-14T07:24:11;21.90;63.60
56240;DHT22;42154;51.992;5.896;2023-06-14T07:26:37;22.00;63.60
56240;DHT22;42154;51.992;5.896;2023-06-14T07:29:03;22.10;63.30
56240;DHT22;42154;51.992;5.896;2023-06-14T07:31:28;22.20;63.30
56240;DHT22;42154;51.992;5.896;2023-06-14T07:33:54;22.30;63.30
56240;DHT22;42154;51.992;5.896;2023-06-14T07:36:20;22.50;63.50
56240;DHT22;42154;51.992;5.896;2023-06-14T07:38:46;22.60;62.40
56240;DHT22;42154;51.992;5.896;2023-06-14T07:41:12;22.60;62.80
56240;DHT22;42154;51.992;5.896;2023-06-14T07:43:37;22.70;62.60
56240;DHT22;42154;51.992;5.896;2023-06-14T07:46:03;22.80;62.50
56240;DHT22;42154;51.992;5.896;2023-06-14T07:48:29;22.90;62.40
56240;DHT22;42154;51.992;5.896;2023-06-14T07:50:55;23.00;61.80
56240;DHT22;42154;51.992;5.896;2023-06-14T07:53:21;23.10;61.90
56240;DHT22;42154;51.992;5.896;2023-06-14T07:55:47;23.20;61.70
56240;DHT22;42154;51.992;5.896;2023-06-14T07:58:13;23.20;61.00
56240;DHT22;42154;51.992;5.896;2023-06-14T08:00:39;23.30;60.60
56240;DHT22;42154;51.992;5.896;2023-06-14T08:03:05;23.20;60.20
56240;DHT22;42154;51.992;5.896;2023-06-14T08:05:30;23.30;61.00
56240;DHT22;42154;51.992;5.896;2023-06-14T08:07:56;23.30;60.00
56240;DHT22;42154;51.992;5.896;2023-06-14T08:10:22;23.30;59.70
56240;DHT22;42154;51.992;5.896;2023-06-14T08:12:48;23.20;60.00
56240;DHT22;42154;51.992;5.896;2023-06-14T08:15:16;23.20;59.60
56240;DHT22;42154;51.992;5.896;2023-06-14T08:17:44;23.30;59.80
56240;DHT22;42154;51.992;5.896;2023-06-14T08:20:11;23.50;59.30
56240;DHT22;42154;51.992;5.896;2023-06-14T08:22:37;23.60;59.20
56240;DHT22;42154;51.992;5.896;2023-06-14T08:25:04;23.60;58.90
56240;DHT22;42154;51.992;5.896;2023-06-14T08:27:30;23.60;58.00
56240;DHT22;42154;51.992;5.896;2023-06-14T08:29:56;23.50;58.30
56240;DHT22;42154;51.992;5.896;2023-06-14T08:32:22;23.50;58.50
56240;DHT22;42154;51.992;5.896;2023-06-14T08:34:48;23.60;58.50
56240;DHT22;42154;51.992;5.896;2023-06-14T08:37:14;23.70;58.60
56240;DHT22;42154;51.992;5.896;2023-06-14T08:39:40;23.80;58.20
56240;DHT22;42154;51.992;5.896;2023-06-14T08:42:07;23.90;58.10
56240;DHT22;42154;51.992;5.896;2023-06-14T08:44:34;24.00;58.30
56240;DHT22;42154;51.992;5.896;2023-06-14T08:47:00;24.10;58.20
56240;DHT22;42154;51.992;5.896;2023-06-14T08:49:26;24.10;57.20
56240;DHT22;42154;51.992;5.896;2023-06-14T08:51:57;24.00;57.80
56240;DHT22;42154;51.992;5.896;2023-06-14T08:54:25;24.20;57.50
56240;DHT22;42154;51.992;5.896;2023-06-14T08:56:53;24.20;56.70
56240;DHT22;42154;51.992;5.896;2023-06-14T08:59:27;24.30;56.50
56240;DHT22;42154;51.992;5.896;2023-06-14T09:01:53;24.40;56.80
56240;DHT22;42154;51.992;5.896;2023-06-14T09:04:20;24.30;56.80
56240;DHT22;42154;51.992;5.896;2023-06-14T09:06:47;24.40;58.00
56240;DHT22;42154;51.992;5.896;2023-06-14T09:09:21;24.50;56.90
56240;DHT22;42154;51.992;5.896;2023-06-14T09:11:50;24.50;56.30
56240;DHT22;42154;51.992;5.896;2023-06-14T09:14:16;24.50;56.50
56240;DHT22;42154;51.992;5.896;2023-06-14T09:16:41;24.50;55.30
56240;DHT22;42154;51.992;5.896;2023-06-14T09:19:07;24.40;54.90
56240;DHT22;42154;51.992;5.896;2023-06-14T09:21:34;24.40;55.40
56240;DHT22;42154;51.992;5.896;2023-06-14T09:24:01;24.40;55.80
56240;DHT22;42154;51.992;5.896;2023-06-14T09:26:28;24.40;56.20
56240;DHT22;42154;51.992;5.896;2023-06-14T09:28:53;24.40;56.20
56240;DHT22;42154;51.992;5.896;2023-06-14T09:31:21;24.50;56.40
56240;DHT22;42154;51.992;5.896;2023-06-14T09:33:48;24.50;56.50
56240;DHT22;42154;51.992;5.896;2023-06-14T09:36:16;24.50;57.20
56240;DHT22;42154;51.992;5.896;2023-06-14T09:38:55;24.60;57.30
56240;DHT22;42154;51.992;5.896;2023-06-14T09:41:37;24.70;56.90
56240;DHT22;42154;51.992;5.896;2023-06-14T09:44:04;24.80;57.40
56240;DHT22;42154;51.992;5.896;2023-06-14T09:46:31;24.90;57.30
56240;DHT22;42154;51.992;5.896;2023-06-14T09:49:00;25.10;56.20
56240;DHT22;42154;51.992;5.896;2023-06-14T09:51:27;25.20;56.80
56240;DHT22;42154;51.992;5.896;2023-06-14T09:53:55;25.20;54.90
56240;DHT22;42154;51.992;5.896;2023-06-14T09:56:27;25.20;55.20
56240;DHT22;42154;51.992;5.896;2023-06-14T09:58:57;25.20;55.00
56240;DHT22;42154;51.992;5.896;2023-06-14T10:01:24;25.20;55.30
56240;DHT22;42154;51.992;5.896;2023-06-14T10:04:06;25.30;55.00
56240;DHT22;42154;51.992;5.896;2023-06-14T10:06:36;25.30;54.20
56240;DHT22;42154;51.992;5.896;2023-06-14T10:09:03;25.20;54.70
56240;DHT22;42154;51.992;5.896;2023-06-14T10:11:29;25.10;54.80
56240;DHT22;42154;51.992;5.896;2023-06-14T10:13:56;25.10;55.30
56240;DHT22;42154;51.992;5.896;2023-06-14T10:16:36;25.30;55.40
56240;DHT22;42154;51.992;5.896;2023-06-14T10:20:03;25.40;55.30
56240;DHT22;42154;51.992;5.896;2023-06-14T10:22:34;25.40;55.30
56240;DHT22;42154;51.992;5.896;2023-06-14T10:25:02;25.30;55.00
56240;DHT22;42154;51.992;5.896;2023-06-14T10:27:27;25.20;55.40
56240;DHT22;42154;51.992;5.896;2023-06-14T10:32:20;25.10;55.50
56240;DHT22;42154;51.992;5.896;2023-06-14T10:34:54;25.20;55.20
56240;DHT22;42154;51.992;5.896;2023-06-14T10:37:20;25.30;55.20
56240;DHT22;42154;51.992;5.896;2023-06-14T10:39:46;25.40;55.30
56240;DHT22;42154;51.992;5.896;2023-06-14T10:42:13;25.50;54.90
56240;DHT22;42154;51.992;5.896;2023-06-14T10:44:49;25.60;55.00
56240;DHT22;42154;51.992;5.896;2023-06-14T10:50:05;25.70;54.20
56240;DHT22;42154;51.992;5.896;2023-06-14T10:52:41;25.70;54.30
56240;DHT22;42154;51.992;5.896;2023-06-14T10:55:08;25.80;53.80
56240;DHT22;42154;51.992;5.896;2023-06-14T10:57:53;25.80;53.80
56240;DHT22;42154;51.992;5.896;2023-06-14T11:00:25;25.70;53.10
56240;DHT22;42154;51.992;5.896;2023-06-14T11:05:54;25.70;53.20
56240;DHT22;42154;51.992;5.896;2023-06-14T11:11:22;25.30;52.90
56240;DHT22;42154;51.992;5.896;2023-06-14T11:13:49;25.40;53.40
56240;DHT22;42154;51.992;5.896;2023-06-14T11:16:17;25.50;53.40
56240;DHT22;42154;51.992;5.896;2023-06-14T11:18:45;25.40;53.70
56240;DHT22;42154;51.992;5.896;2023-06-14T11:21:17;25.50;53.60
56240;DHT22;42154;51.992;5.896;2023-06-14T11:23:53;25.40;53.60
56240;DHT22;42154;51.992;5.896;2023-06-14T11:26:30;25.30;53.60
56240;DHT22;42154;51.992;5.896;2023-06-14T11:28:58;25.40;53.80
56240;DHT22;42154;51.992;5.896;2023-06-14T11:31:25;25.50;53.80
56240;DHT22;42154;51.992;5.896;2023-06-14T11:33:53;25.50;54.00
56240;DHT22;42154;51.992;5.896;2023-06-14T11:36:18;25.60;53.80
56240;DHT22;42154;51.992;5.896;2023-06-14T11:38:44;25.80;53.80
56240;DHT22;42154;51.992;5.896;2023-06-14T11:41:10;25.90;53.70
56240;DHT22;42154;51.992;5.896;2023-06-14T11:43:36;26.00;53.40
56240;DHT22;42154;51.992;5.896;2023-06-14T11:46:02;25.90;53.40
56240;DHT22;42154;51.992;5.896;2023-06-14T11:48:41;25.80;53.60
56240;DHT22;42154;51.992;5.896;2023-06-14T11:51:07;25.80;53.70
56240;DHT22;42154;51.992;5.896;2023-06-14T11:53:33;25.70;53.90
56240;DHT22;42154;51.992;5.896;2023-06-14T11:55:59;25.70;54.20
56240;DHT22;42154;51.992;5.896;2023-06-14T11:58:26;25.80;54.20
56240;DHT22;42154;51.992;5.896;2023-06-14T12:00:53;25.90;54.20
56240;DHT22;42154;51.992;5.896;2023-06-14T12:03:23;25.80;54.40
56240;DHT22;42154;51.992;5.896;2023-06-14T12:06:02;25.80;54.90
56240;DHT22;42154;51.992;5.896;2023-06-14T12:08:35;25.90;54.00
56240;DHT22;42154;51.992;5.896;2023-06-14T12:11:12;25.90;53.70
56240;DHT22;42154;51.992;5.896;2023-06-14T12:13:40;25.90;53.70
56240;DHT22;42154;51.992;5.896;2023-06-14T12:16:11;25.80;53.80
56240;DHT22;42154;51.992;5.896;2023-06-14T12:18:38;25.70;52.90
56240;DHT22;42154;51.992;5.896;2023-06-14T12:21:08;25.70;53.40
56240;DHT22;42154;51.992;5.896;2023-06-14T12:23:39;25.70;53.50
56240;DHT22;42154;51.992;5.896;2023-06-14T12:26:05;25.60;53.70
56240;DHT22;42154;51.992;5.896;2023-06-14T12:28:31;25.70;53.60
56240;DHT22;42154;51.992;5.896;2023-06-14T12:30:57;25.60;53.90
56240;DHT22;42154;51.992;5.896;2023-06-14T12:33:24;25.80;54.20
56240;DHT22;42154;51.992;5.896;2023-06-14T12:35:50;25.80;54.20
56240;DHT22;42154;51.992;5.896;2023-06-14T12:38:16;26.00;54.00
56240;DHT22;42154;51.992;5.896;2023-06-14T12:40:42;26.10;54.30
56240;DHT22;42154;51.992;5.896;2023-06-14T12:43:08;26.20;54.00
56240;DHT22;42154;51.992;5.896;2023-06-14T12:45:34;26.20;53.50
56240;DHT22;42154;51.992;5.896;2023-06-14T12:47:59;26.20;53.90
56240;DHT22;42154;51.992;5.896;2023-06-14T12:50:25;26.30;54.00
56240;DHT22;42154;51.992;5.896;2023-06-14T12:52:51;26.30;53.70
56240;DHT22;42154;51.992;5.896;2023-06-14T12:55:17;26.30;54.40
56240;DHT22;42154;51.992;5.896;2023-06-14T12:57:44;26.30;54.20
56240;DHT22;42154;51.992;5.896;2023-06-14T13:00:10;26.40;53.90
56240;DHT22;42154;51.992;5.896;2023-06-14T13:02:36;26.50;54.00
56240;DHT22;42154;51.992;5.896;2023-06-14T13:05:02;26.50;54.30
56240;DHT22;42154;51.992;5.896;2023-06-14T13:07:29;26.50;54.20
56240;DHT22;42154;51.992;5.896;2023-06-14T13:09:55;26.50;53.70
56240;DHT22;42154;51.992;5.896;2023-06-14T13:12:20;26.30;53.80
56240;DHT22;42154;51.992;5.896;2023-06-14T13:14:46;26.30;54.20
56240;DHT22;42154;51.992;5.896;2023-06-14T13:17:12;26.40;53.40
56240;DHT22;42154;51.992;5.896;2023-06-14T13:19:38;26.40;53.40
56240;DHT22;42154;51.992;5.896;2023-06-14T13:22:04;26.40;53.70
56240;DHT22;42154;51.992;5.896;2023-06-14T13:24:30;26.40;53.90
56240;DHT22;42154;51.992;5.896;2023-06-14T13:26:57;26.50;53.80
56240;DHT22;42154;51.992;5.896;2023-06-14T13:29:26;26.50;53.10
56240;DHT22;42154;51.992;5.896;2023-06-14T13:31:53;26.50;52.70
56240;DHT22;42154;51.992;5.896;2023-06-14T13:34:19;26.50;52.70
56240;DHT22;42154;51.992;5.896;2023-06-14T13:36:45;26.50;52.90
56240;DHT22;42154;51.992;5.896;2023-06-14T13:39:11;26.50;52.60
56240;DHT22;42154;51.992;5.896;2023-06-14T13:41:37;26.50;53.00
56240;DHT22;42154;51.992;5.896;2023-06-14T13:44:03;26.60;52.70
56240;DHT22;42154;51.992;5.896;2023-06-14T13:46:30;26.70;52.60
56240;DHT22;42154;51.992;5.896;2023-06-14T13:48:56;26.70;52.90
56240;DHT22;42154;51.992;5.896;2023-06-14T13:51:22;26.70;53.10
56240;DHT22;42154;51.992;5.896;2023-06-14T13:53:49;26.70;53.30
56240;DHT22;42154;51.992;5.896;2023-06-14T13:56:16;26.80;53.60
56240;DHT22;42154;51.992;5.896;2023-06-14T13:58:42;26.80;52.40
56240;DHT22;42154;51.992;5.896;2023-06-14T14:01:08;26.70;52.80
56240;DHT22;42154;51.992;5.896;2023-06-14T14:03:35;26.90;52.80
56240;DHT22;42154;51.992;5.896;2023-06-14T14:06:01;26.90;52.70
56240;DHT22;42154;51.992;5.896;2023-06-14T14:08:28;26.90;52.80
56240;DHT22;42154;51.992;5.896;2023-06-14T14:10:53;27.00;52.80
56240;DHT22;42154;51.992;5.896;2023-06-14T14:13:20;27.10;52.70
56240;DHT22;42154;51.992;5.896;2023-06-14T14:15:46;27.10;52.70
56240;DHT22;42154;51.992;5.896;2023-06-14T14:18:12;27.10;52.80
56240;DHT22;42154;51.992;5.896;2023-06-14T14:20:38;27.20;52.90
56240;DHT22;42154;51.992;5.896;2023-06-14T14:23:04;27.10;53.00
56240;DHT22;42154;51.992;5.896;2023-06-14T14:25:30;27.00;53.20
56240;DHT22;42154;51.992;5.896;2023-06-14T14:27:55;27.00;52.20
56240;DHT22;42154;51.992;5.896;2023-06-14T14:30:21;26.80;51.00
56240;DHT22;42154;51.992;5.896;2023-06-14T14:32:51;26.60;51.80
56240;DHT22;42154;51.992;5.896;2023-06-14T14:35:18;26.50;51.90
56240;DHT22;42154;51.992;5.896;2023-06-14T14:37:44;26.50;51.80
56240;DHT22;42154;51.992;5.896;2023-06-14T14:40:10;26.60;51.00
56240;DHT22;42154;51.992;5.896;2023-06-14T14:42:36;26.50;51.20
56240;DHT22;42154;51.992;5.896;2023-06-14T14:45:03;26.60;51.50
56240;DHT22;42154;51.992;5.896;2023-06-14T14:47:28;26.60;51.70
56240;DHT22;42154;51.992;5.896;2023-06-14T14:49:54;26.70;52.00
56240;DHT22;42154;51.992;5.896;2023-06-14T14:52:20;26.90;52.00
56240;DHT22;42154;51.992;5.896;2023-06-14T14:54:46;27.00;51.90
56240;DHT22;42154;51.992;5.896;2023-06-14T14:57:11;27.10;51.90
56240;DHT22;42154;51.992;5.896;2023-06-14T14:59:37;27.10;51.60
56240;DHT22;42154;51.992;5.896;2023-06-14T15:02:03;27.10;51.80
56240;DHT22;42154;51.992;5.896;2023-06-14T15:04:29;27.00;51.60
56240;DHT22;42154;51.992;5.896;2023-06-14T15:06:54;27.00;51.40
56240;DHT22;42154;51.992;5.896;2023-06-14T15:09:20;26.90;51.30
56240;DHT22;42154;51.992;5.896;2023-06-14T15:11:46;26.80;51.20
56240;DHT22;42154;51.992;5.896;2023-06-14T15:14:12;26.80;51.10
56240;DHT22;42154;51.992;5.896;2023-06-14T15:16:37;26.90;51.20
56240;DHT22;42154;51.992;5.896;2023-06-14T15:19:03;26.90;51.10
56240;DHT22;42154;51.992;5.896;2023-06-14T15:21:29;26.90;51.20
56240;DHT22;42154;51.992;5.896;2023-06-14T15:23:54;26.90;51.60
56240;DHT22;42154;51.992;5.896;2023-06-14T15:26:20;26.90;52.20
56240;DHT22;42154;51.992;5.896;2023-06-14T15:28:46;27.00;52.30
56240;DHT22;42154;51.992;5.896;2023-06-14T15:31:12;27.00;51.90
56240;DHT22;42154;51.992;5.896;2023-06-14T15:33:37;26.80;52.60
56240;DHT22;42154;51.992;5.896;2023-06-14T15:36:03;26.90;53.10
56240;DHT22;42154;51.992;5.896;2023-06-14T15:38:30;26.90;53.00
56240;DHT22;42154;51.992;5.896;2023-06-14T15:40:57;26.90;52.70
56240;DHT22;42154;51.992;5.896;2023-06-14T15:43:23;26.90;52.80